createdAt,value
2023-05-16T00:00:06.758Z,0.30
2023-05-16T00:02:36.207Z,0.30
2023-05-16T00:05:07.823Z,0.30
2023-05-16T00:07:37.979Z,0.30
2023-05-16T00:10:07.261Z,0.30
2023-05-16T00:12:36.828Z,0.20
2023-05-16T00:15:06.947Z,0.20
2023-05-16T00:17:35.617Z,0.30
2023-05-16T00:20:11.071Z,0.20
2023-05-16T00:22:40.950Z,0.30
2023-05-16T00:25:10.066Z,0.30
2023-05-16T00:27:38.562Z,0.30
2023-05-16T00:30:08.065Z,0.30
2023-05-16T00:32:37.100Z,0.20
2023-05-16T00:35:06.582Z,0.30
2023-05-16T00:37:34.837Z,0.30
2023-05-16T00:40:07.907Z,0.30
2023-05-16T00:42:36.148Z,0.30
2023-05-16T00:45:04.817Z,0.20
2023-05-16T00:47:33.769Z,0.30
2023-05-16T00:50:02.363Z,0.30
2023-05-16T00:52:31.018Z,0.30
2023-05-16T00:54:59.278Z,0.23
2023-05-16T00:57:29.216Z,0.30
2023-05-16T00:59:57.751Z,0.30
2023-05-16T01:02:28.641Z,0.30
2023-05-16T01:04:57.778Z,0.30
2023-05-16T01:07:26.027Z,0.30
2023-05-16T01:09:54.826Z,0.40
2023-05-16T01:12:30.574Z,0.30
2023-05-16T01:15:06.773Z,0.30
2023-05-16T01:17:43.518Z,0.40
2023-05-16T01:20:30.120Z,0.30
2023-05-16T01:23:08.840Z,0.30
2023-05-16T01:25:48.920Z,0.33
2023-05-16T01:28:20.404Z,0.30
2023-05-16T01:30:48.941Z,0.30
2023-05-16T01:33:17.178Z,0.30
2023-05-16T01:35:54.498Z,0.30
2023-05-16T01:38:27.720Z,0.30
2023-05-16T01:41:00.818Z,0.40
2023-05-16T01:43:36.123Z,0.30
2023-05-16T01:46:10.675Z,0.30
2023-05-16T01:48:47.558Z,0.20
2023-05-16T01:51:16.142Z,0.30
2023-05-16T01:53:45.875Z,0.30
2023-05-16T01:56:17.891Z,0.40
2023-05-16T01:58:49.494Z,0.40
2023-05-16T02:01:19.397Z,0.30
2023-05-16T02:03:48.974Z,0.30
2023-05-16T02:06:17.289Z,0.30
2023-05-16T02:08:45.565Z,0.40
2023-05-16T02:11:13.984Z,0.30
2023-05-16T02:13:42.733Z,0.30
2023-05-16T02:16:13.710Z,0.30
2023-05-16T02:18:42.624Z,0.33
2023-05-16T02:21:11.192Z,0.40
2023-05-16T02:23:42.657Z,0.20
2023-05-16T02:26:10.946Z,0.37
2023-05-16T02:28:39.189Z,0.30
2023-05-16T02:31:07.564Z,0.30
2023-05-16T02:33:37.309Z,0.27
2023-05-16T02:36:06.215Z,0.37
2023-05-16T02:38:34.657Z,0.30
2023-05-16T02:41:03.298Z,0.30
2023-05-16T02:43:31.522Z,0.30
2023-05-16T02:45:59.890Z,0.30
2023-05-16T02:48:28.378Z,0.20
2023-05-16T02:50:58.653Z,0.30
2023-05-16T02:53:27.212Z,0.40
2023-05-16T02:55:55.458Z,0.20
2023-05-16T02:58:23.818Z,0.30
2023-05-16T03:00:53.233Z,0.30
2023-05-16T03:03:21.710Z,0.30
2023-05-16T03:05:50.366Z,0.30
2023-05-16T03:08:20.048Z,0.30
2023-05-16T03:10:48.350Z,0.30
2023-05-16T03:13:17.001Z,0.30
2023-05-16T03:15:46.125Z,0.30
2023-05-16T03:18:14.562Z,0.40
2023-05-16T03:20:43.240Z,0.30
2023-05-16T03:23:11.670Z,0.20
2023-05-16T03:25:43.224Z,0.30
2023-05-16T03:28:12.797Z,0.37
2023-05-16T03:30:42.448Z,0.20
2023-05-16T03:33:11.000Z,0.20
2023-05-16T03:35:40.005Z,0.30
2023-05-16T03:38:08.381Z,0.50
2023-05-16T03:40:37.102Z,0.37
2023-05-16T03:43:06.846Z,0.40
2023-05-16T03:45:36.353Z,0.27
2023-05-16T03:48:04.968Z,0.30
2023-05-16T03:50:33.462Z,0.33
2023-05-16T03:53:01.946Z,0.30
2023-05-16T03:55:31.109Z,0.30
2023-05-16T03:57:59.584Z,0.30
2023-05-16T04:00:29.677Z,0.40
2023-05-16T04:02:58.468Z,0.30
2023-05-16T04:05:27.148Z,0.30
2023-05-16T04:07:55.775Z,0.37
2023-05-16T04:10:24.674Z,0.30
2023-05-16T04:12:52.967Z,0.30
2023-05-16T04:15:21.423Z,0.30
2023-05-16T04:17:52.351Z,0.40
2023-05-16T04:20:21.244Z,0.30
2023-05-16T04:22:50.066Z,0.30
2023-05-16T04:25:18.587Z,0.40
2023-05-16T04:27:47.103Z,0.40
2023-05-16T04:30:16.015Z,0.30
2023-05-16T04:32:44.561Z,0.30
2023-05-16T04:35:14.423Z,0.30
2023-05-16T04:37:43.026Z,0.30
2023-05-16T04:40:13.192Z,0.40
2023-05-16T04:42:41.734Z,0.40
2023-05-16T04:45:12.175Z,0.20
2023-05-16T04:47:41.034Z,0.30
2023-05-16T04:50:10.672Z,0.30
2023-05-16T04:52:43.794Z,0.30
2023-05-16T04:55:12.964Z,0.30
2023-05-16T04:57:47.581Z,0.20
2023-05-16T05:00:25.838Z,0.50
2023-05-16T05:02:54.610Z,0.40
2023-05-16T05:05:24.267Z,0.30
2023-05-16T05:07:54.255Z,0.30
2023-05-16T05:10:22.555Z,0.40
2023-05-16T05:12:50.815Z,0.40
2023-05-16T05:15:19.445Z,0.40
2023-05-16T05:17:47.883Z,0.30
2023-05-16T05:20:16.372Z,0.40
2023-05-16T05:22:45.005Z,0.40
2023-05-16T05:25:15.277Z,0.30
2023-05-16T05:27:43.652Z,0.30
2023-05-16T05:30:12.753Z,0.40
2023-05-16T05:32:41.665Z,0.40
2023-05-16T05:35:10.324Z,0.40
2023-05-16T05:37:38.785Z,0.30
2023-05-16T05:40:10.921Z,0.30
2023-05-16T05:42:40.560Z,0.30
2023-05-16T05:45:09.505Z,0.30
2023-05-16T05:47:37.934Z,0.40
2023-05-16T05:50:07.719Z,0.30
2023-05-16T05:52:39.282Z,0.30
2023-05-16T05:55:08.260Z,0.30
2023-05-16T05:57:36.538Z,0.30
2023-05-16T06:00:07.672Z,0.27
2023-05-16T06:02:37.045Z,0.30
2023-05-16T06:05:09.294Z,0.30
2023-05-16T06:07:37.679Z,0.20
2023-05-16T06:10:08.592Z,0.20
2023-05-16T06:12:36.995Z,0.30
2023-05-16T06:15:11.744Z,0.23
2023-05-16T06:17:40.219Z,0.20
2023-05-16T06:20:09.640Z,0.40
2023-05-16T06:22:38.342Z,0.30
2023-05-16T06:25:07.283Z,0.30
2023-05-16T06:27:35.613Z,0.20
2023-05-16T06:30:04.149Z,0.20
2023-05-16T06:32:33.862Z,0.30
2023-05-16T06:35:02.999Z,0.40
2023-05-16T06:37:31.329Z,0.30
2023-05-16T06:40:00.390Z,0.30
2023-05-16T06:42:28.727Z,0.20
2023-05-16T06:44:57.072Z,0.20
2023-05-16T06:47:25.600Z,0.30
2023-05-16T06:49:55.604Z,0.30
2023-05-16T06:52:24.279Z,0.30
2023-05-16T06:54:52.926Z,0.30
2023-05-16T06:57:21.324Z,0.30
2023-05-16T06:59:49.775Z,0.30
2023-05-16T07:02:21.024Z,0.30
2023-05-16T07:04:49.573Z,0.20
2023-05-16T07:07:19.348Z,0.30
2023-05-16T07:09:47.696Z,0.30
2023-05-16T07:12:16.208Z,0.30
2023-05-16T07:14:44.824Z,0.30
2023-05-16T07:17:13.285Z,0.30
2023-05-16T07:19:41.592Z,0.30
2023-05-16T07:22:11.158Z,0.30
2023-05-16T07:24:40.905Z,0.30
2023-05-16T07:27:09.331Z,0.30
2023-05-16T07:29:38.061Z,0.20
2023-05-16T07:32:07.745Z,0.30
2023-05-16T07:34:36.346Z,0.30
2023-05-16T07:37:05.256Z,0.30
2023-05-16T07:39:34.056Z,0.40
2023-05-16T07:42:03.780Z,0.23
2023-05-16T07:44:32.255Z,0.20
2023-05-16T07:47:00.602Z,0.30
2023-05-16T07:49:29.084Z,0.30
2023-05-16T07:51:57.428Z,0.30
2023-05-16T07:54:25.818Z,0.30
2023-05-16T07:56:54.219Z,0.30
2023-05-16T07:59:24.134Z,0.20
2023-05-16T08:01:53.141Z,0.20
2023-05-16T08:04:21.950Z,0.20
2023-05-16T08:06:51.020Z,0.27
2023-05-16T08:09:19.549Z,0.30
2023-05-16T08:11:47.911Z,0.20
2023-05-16T08:14:16.347Z,0.20
2023-05-16T08:16:46.365Z,0.20
2023-05-16T08:19:14.850Z,0.20
2023-05-16T08:21:43.427Z,0.30
2023-05-16T08:24:15.951Z,0.23
2023-05-16T08:26:45.546Z,0.20
2023-05-16T08:29:14.520Z,0.20
2023-05-16T08:31:43.071Z,0.30
2023-05-16T08:34:12.961Z,0.20
2023-05-16T08:36:41.725Z,0.20
2023-05-16T08:39:11.651Z,0.20
2023-05-16T08:41:40.296Z,0.20
2023-05-16T08:44:08.969Z,0.23
2023-05-16T08:46:38.199Z,0.20
2023-05-16T08:49:08.166Z,0.20
2023-05-16T08:51:39.900Z,0.20
2023-05-16T08:54:13.875Z,0.20
2023-05-16T08:56:43.528Z,0.20
2023-05-16T08:59:12.787Z,0.20
2023-05-16T09:01:42.235Z,0.20
2023-05-16T09:04:11.475Z,0.20
2023-05-16T09:06:41.754Z,0.20
2023-05-16T09:09:13.064Z,0.20
2023-05-16T09:11:41.585Z,0.20
2023-05-16T09:14:12.954Z,0.30
2023-05-16T09:16:41.462Z,0.30
2023-05-16T09:19:13.951Z,0.20
2023-05-16T09:21:43.807Z,0.20
2023-05-16T09:24:12.117Z,0.20
2023-05-16T09:26:41.022Z,0.20
2023-05-16T09:29:13.131Z,0.20
2023-05-16T09:31:41.987Z,0.30
2023-05-16T09:34:11.417Z,0.20
2023-05-16T09:36:42.128Z,0.20
2023-05-16T09:39:19.505Z,0.20
2023-05-16T09:41:47.996Z,0.20
2023-05-16T09:44:19.525Z,0.20
2023-05-16T09:46:51.178Z,0.20
2023-05-16T09:49:22.615Z,0.20
2023-05-16T09:51:51.256Z,0.17
2023-05-16T09:54:33.626Z,0.20
2023-05-16T09:57:07.424Z,0.20
2023-05-16T09:59:38.188Z,0.30
2023-05-16T10:02:09.583Z,0.20
2023-05-16T10:04:38.605Z,0.20
2023-05-16T10:07:09.857Z,0.20
2023-05-16T10:09:41.915Z,0.20
2023-05-16T10:12:15.234Z,0.20
2023-05-16T10:14:46.549Z,0.20
2023-05-16T10:17:17.148Z,0.17
2023-05-16T10:19:46.405Z,0.20
2023-05-16T10:22:16.236Z,0.20
2023-05-16T10:24:52.123Z,0.20
2023-05-16T10:27:20.933Z,0.10
2023-05-16T10:29:54.716Z,0.20
2023-05-16T10:32:25.536Z,0.20
2023-05-16T10:34:56.110Z,0.13
2023-05-16T10:37:26.005Z,0.20
2023-05-16T10:39:56.643Z,0.20
2023-05-16T10:42:25.257Z,0.20
2023-05-16T10:45:05.048Z,0.20
2023-05-16T10:47:35.025Z,0.10
2023-05-16T10:50:03.932Z,0.20
2023-05-16T10:52:35.960Z,0.20
2023-05-16T10:55:06.313Z,0.20
2023-05-16T10:57:36.764Z,0.20
2023-05-16T11:00:22.960Z,0.20
2023-05-16T11:02:52.642Z,0.20
2023-05-16T11:05:21.459Z,0.20
2023-05-16T11:08:05.610Z,0.20
2023-05-16T11:10:35.349Z,0.20
2023-05-16T11:13:09.991Z,0.20
2023-05-16T11:15:38.370Z,0.20
2023-05-16T11:18:08.706Z,0.20
2023-05-16T11:20:38.629Z,0.20
2023-05-16T11:23:27.150Z,0.20
2023-05-16T11:26:00.857Z,0.20
2023-05-16T11:28:30.263Z,0.20
2023-05-16T11:31:01.153Z,0.20
2023-05-16T11:33:35.555Z,0.20
2023-05-16T11:36:15.993Z,0.20
2023-05-16T11:38:45.119Z,0.20
2023-05-16T11:41:16.647Z,0.20
2023-05-16T11:43:46.767Z,0.20
2023-05-16T11:46:16.499Z,0.20
2023-05-16T11:48:47.421Z,0.20
2023-05-16T11:51:19.214Z,0.20
2023-05-16T11:53:49.838Z,0.10
2023-05-16T11:56:19.773Z,0.10
2023-05-16T11:58:48.302Z,0.20
2023-05-16T12:01:16.807Z,0.20
2023-05-16T12:03:45.463Z,0.20
2023-05-16T12:06:14.040Z,0.20
2023-05-16T12:08:51.570Z,0.10
2023-05-16T12:11:21.891Z,0.17
2023-05-16T12:13:50.687Z,0.20
2023-05-16T12:16:19.208Z,0.20
2023-05-16T12:18:47.985Z,0.20
2023-05-16T12:21:18.208Z,0.20
2023-05-16T12:23:46.695Z,0.13
2023-05-16T12:26:15.393Z,0.10
2023-05-16T12:28:45.171Z,0.10
2023-05-16T12:31:30.929Z,0.20
2023-05-16T12:34:00.859Z,0.20
2023-05-16T12:36:33.960Z,0.20
2023-05-16T12:39:04.154Z,0.20
2023-05-16T12:41:33.149Z,0.20
2023-05-16T12:44:17.249Z,0.20
2023-05-16T12:46:47.098Z,0.20
2023-05-16T12:49:16.059Z,0.20
2023-05-16T12:51:51.231Z,0.20
2023-05-16T12:54:20.548Z,0.20
2023-05-16T12:56:48.996Z,0.20
2023-05-16T12:59:20.171Z,0.20
2023-05-16T13:01:49.009Z,0.20
2023-05-16T13:04:20.210Z,0.20
2023-05-16T13:06:58.990Z,0.20
2023-05-16T13:09:31.327Z,0.10
2023-05-16T13:12:01.222Z,0.13
2023-05-16T13:14:31.204Z,0.20
2023-05-16T13:16:59.805Z,0.20
2023-05-16T13:19:28.169Z,0.20
2023-05-16T13:21:57.206Z,0.17
2023-05-16T13:24:25.574Z,0.20
2023-05-16T13:26:54.166Z,0.10
2023-05-16T13:29:22.565Z,0.20
2023-05-16T13:31:52.428Z,0.20
2023-05-16T13:34:21.056Z,0.10
2023-05-16T13:36:54.248Z,0.10
2023-05-16T13:39:23.756Z,0.10
2023-05-16T13:41:52.806Z,0.10
2023-05-16T13:44:22.587Z,0.10
2023-05-16T13:46:52.651Z,0.20
2023-05-16T13:49:20.962Z,0.20
2023-05-16T13:51:49.263Z,0.17
2023-05-16T13:54:17.846Z,0.20
2023-05-16T13:56:46.388Z,0.20
2023-05-16T13:59:20.585Z,0.20
2023-05-16T14:01:57.440Z,0.10
2023-05-16T14:04:26.455Z,0.20
2023-05-16T14:06:56.500Z,0.20
2023-05-16T14:09:25.011Z,0.10
2023-05-16T14:11:53.499Z,0.10
2023-05-16T14:14:22.144Z,0.10
2023-05-16T14:16:50.680Z,0.17
2023-05-16T14:19:21.143Z,0.20
2023-05-16T14:21:49.648Z,0.10
2023-05-16T14:24:18.113Z,0.10
2023-05-16T14:26:46.740Z,0.20
2023-05-16T14:29:15.322Z,0.20
2023-05-16T14:31:43.812Z,0.20
2023-05-16T14:34:12.381Z,0.10
2023-05-16T14:36:42.253Z,0.20
2023-05-16T14:39:10.845Z,0.20
2023-05-16T14:41:39.152Z,0.20
2023-05-16T14:44:07.633Z,0.20
2023-05-16T14:46:36.327Z,0.20
2023-05-16T14:49:05.005Z,0.20
2023-05-16T14:51:33.673Z,0.17
2023-05-16T14:54:04.331Z,0.10
2023-05-16T14:56:33.720Z,0.20
2023-05-16T14:59:02.538Z,0.10
2023-05-16T15:01:31.280Z,0.20
2023-05-16T15:03:59.814Z,0.20
2023-05-16T15:06:28.362Z,0.10
2023-05-16T15:08:57.223Z,0.20
2023-05-16T15:11:27.065Z,0.10
2023-05-16T15:13:57.174Z,0.10
2023-05-16T15:16:25.810Z,0.10
2023-05-16T15:18:54.435Z,0.20
2023-05-16T15:21:23.756Z,0.20
2023-05-16T15:23:52.442Z,0.20
2023-05-16T15:26:24.535Z,0.10
2023-05-16T15:28:55.840Z,0.20
2023-05-16T15:31:24.272Z,0.10
2023-05-16T15:33:52.835Z,0.20
2023-05-16T15:36:21.439Z,0.20
2023-05-16T15:38:49.840Z,0.20
2023-05-16T15:41:32.079Z,0.20
2023-05-16T15:44:08.400Z,0.20
2023-05-16T15:46:36.943Z,0.20
2023-05-16T15:49:05.354Z,0.20
2023-05-16T15:51:33.635Z,0.20
2023-05-16T15:54:03.116Z,0.20
2023-05-16T15:56:31.572Z,0.17
2023-05-16T15:59:00.000Z,0.20
2023-05-16T16:01:33.180Z,0.20
2023-05-16T16:04:01.761Z,0.20
2023-05-16T16:06:30.218Z,0.20
2023-05-16T16:08:58.804Z,0.20
2023-05-16T16:11:28.584Z,0.27
2023-05-16T16:13:56.834Z,0.20
2023-05-16T16:16:25.457Z,0.20
2023-05-16T16:18:56.109Z,0.17
2023-05-16T16:21:25.001Z,0.20
2023-05-16T16:23:53.323Z,0.20
2023-05-16T16:26:21.651Z,0.20
2023-05-16T16:28:50.863Z,0.20
2023-05-16T16:31:19.487Z,0.20
2023-05-16T16:33:49.271Z,0.20
2023-05-16T16:36:19.892Z,0.20
2023-05-16T16:38:48.444Z,0.20
2023-05-16T16:41:17.445Z,0.20
2023-05-16T16:43:45.996Z,0.20
2023-05-16T16:46:14.567Z,0.20
2023-05-16T16:48:43.294Z,0.20
2023-05-16T16:51:11.967Z,0.20
2023-05-16T16:53:41.827Z,0.20
2023-05-16T16:56:10.188Z,0.20
2023-05-16T16:58:38.795Z,0.20
2023-05-16T17:01:07.426Z,0.20
2023-05-16T17:03:36.375Z,0.20
2023-05-16T17:06:05.186Z,0.20
2023-05-16T17:08:33.749Z,0.20
2023-05-16T17:11:05.404Z,0.20
2023-05-16T17:13:37.889Z,0.30
2023-05-16T17:16:07.360Z,0.20
2023-05-16T17:18:37.972Z,0.20
2023-05-16T17:21:08.527Z,0.20
2023-05-16T17:23:37.220Z,0.20
2023-05-16T17:26:07.272Z,0.20
2023-05-16T17:28:35.866Z,0.20
2023-05-16T17:31:04.345Z,0.20
2023-05-16T17:33:33.057Z,0.20
2023-05-16T17:36:01.694Z,0.20
2023-05-16T17:38:30.222Z,0.20
2023-05-16T17:40:58.853Z,0.10
2023-05-16T17:43:30.666Z,0.20
2023-05-16T17:45:59.428Z,0.20
2023-05-16T17:48:27.910Z,0.30
2023-05-16T17:50:56.397Z,0.20
2023-05-16T17:53:24.912Z,0.30
2023-05-16T17:55:53.730Z,0.30
2023-05-16T17:58:22.178Z,0.23
2023-05-16T18:00:52.641Z,0.20
2023-05-16T18:03:21.396Z,0.20
2023-05-16T18:05:51.264Z,0.30
2023-05-16T18:08:20.002Z,0.20
2023-05-16T18:10:51.568Z,0.30
2023-05-16T18:13:22.295Z,0.20
2023-05-16T18:15:52.693Z,0.30
2023-05-16T18:18:21.342Z,0.30
2023-05-16T18:20:51.069Z,0.20
2023-05-16T18:23:19.585Z,0.23
2023-05-16T18:25:50.647Z,0.37
2023-05-16T18:28:20.660Z,0.20
2023-05-16T18:30:49.513Z,0.30
2023-05-16T18:33:19.440Z,0.30
2023-05-16T18:35:48.045Z,0.30
2023-05-16T18:38:28.198Z,0.20
2023-05-16T18:41:00.523Z,0.20
2023-05-16T18:43:29.197Z,0.30
2023-05-16T18:45:57.930Z,0.20
2023-05-16T18:48:28.083Z,0.30
2023-05-16T18:50:57.209Z,0.30
2023-05-16T18:53:25.864Z,0.30
2023-05-16T18:55:54.420Z,0.30
2023-05-16T18:58:23.218Z,0.30
2023-05-16T19:00:51.726Z,0.30
2023-05-16T19:03:20.420Z,0.20
2023-05-16T19:05:50.426Z,0.30
2023-05-16T19:08:19.100Z,0.30
2023-05-16T19:10:47.709Z,0.30
2023-05-16T19:13:16.517Z,0.30
2023-05-16T19:15:44.989Z,0.30
2023-05-16T19:18:13.972Z,0.30
2023-05-16T19:20:44.394Z,0.30
2023-05-16T19:23:19.252Z,0.30
2023-05-16T19:25:49.217Z,0.23
2023-05-16T19:28:17.858Z,0.37
2023-05-16T19:30:46.430Z,0.40
2023-05-16T19:33:15.274Z,0.20
2023-05-16T19:35:43.896Z,0.30
2023-05-16T19:38:12.254Z,0.40
2023-05-16T19:40:41.999Z,0.33
2023-05-16T19:43:10.690Z,0.40
2023-05-16T19:45:39.321Z,0.40
2023-05-16T19:48:08.328Z,0.30
2023-05-16T19:50:37.643Z,0.30
2023-05-16T19:53:06.447Z,0.30
2023-05-16T19:55:37.848Z,0.30
2023-05-16T19:58:08.156Z,0.30
2023-05-16T20:00:36.683Z,0.30
2023-05-16T20:03:05.184Z,0.30
2023-05-16T20:05:33.828Z,0.27
2023-05-16T20:08:02.332Z,0.30
2023-05-16T20:10:30.865Z,0.30
2023-05-16T20:12:59.395Z,0.40
2023-05-16T20:15:29.692Z,0.30
2023-05-16T20:17:58.311Z,0.30
2023-05-16T20:20:27.309Z,0.20
2023-05-16T20:22:55.668Z,0.20
2023-05-16T20:25:24.422Z,0.30
2023-05-16T20:27:52.865Z,0.30
2023-05-16T20:30:21.484Z,0.20
2023-05-16T20:32:51.286Z,0.40
2023-05-16T20:35:19.871Z,0.23
2023-05-16T20:37:48.312Z,0.30
2023-05-16T20:40:17.155Z,0.30
2023-05-16T20:42:45.608Z,0.20
2023-05-16T20:45:14.215Z,0.30
2023-05-16T20:47:42.901Z,0.30
2023-05-16T20:50:13.210Z,0.23
2023-05-16T20:52:42.781Z,0.30
2023-05-16T20:55:11.360Z,0.30
2023-05-16T20:57:41.699Z,0.30
2023-05-16T21:00:12.486Z,0.20
2023-05-16T21:02:41.155Z,0.30
2023-05-16T21:05:35.002Z,0.30
2023-05-16T21:08:00.296Z,0.30
2023-05-16T21:10:28.868Z,0.20
2023-05-16T21:12:57.458Z,0.20
2023-05-16T21:15:26.220Z,0.30
2023-05-16T21:17:54.869Z,0.30
2023-05-16T21:20:23.437Z,0.20
2023-05-16T21:22:51.913Z,0.30
2023-05-16T21:25:21.853Z,0.40
2023-05-16T21:27:50.294Z,0.30
2023-05-16T21:30:18.939Z,0.30
2023-05-16T21:32:47.461Z,0.30
2023-05-16T21:35:16.253Z,0.30
2023-05-16T21:37:44.826Z,0.40
2023-05-16T21:40:19.078Z,0.30
2023-05-16T21:42:48.978Z,0.30
2023-05-16T21:45:17.365Z,0.30
2023-05-16T21:47:46.043Z,0.20
2023-05-16T21:50:14.810Z,0.30
2023-05-16T21:52:43.225Z,0.30
2023-05-16T21:55:11.955Z,0.30
2023-05-16T21:58:09.578Z,0.30
2023-05-16T22:04:07.809Z,0.30
2023-05-16T22:09:33.553Z,0.40
2023-05-16T22:12:44.348Z,0.30
2023-05-16T22:16:04.896Z,0.30
2023-05-16T22:19:00.583Z,0.53
2023-05-16T22:24:44.238Z,0.30
2023-05-16T22:27:54.577Z,0.30
2023-05-16T22:31:09.245Z,0.50
2023-05-16T22:34:37.938Z,0.30
2023-05-16T22:37:43.884Z,0.37
2023-05-16T22:40:49.842Z,0.40
2023-05-16T22:43:45.967Z,0.40
2023-05-16T22:46:30.704Z,0.50
2023-05-16T22:49:46.535Z,0.50
2023-05-16T22:52:36.023Z,0.40
2023-05-16T22:55:26.230Z,0.50
2023-05-16T22:58:22.229Z,0.50
2023-05-16T23:01:18.550Z,0.60
2023-05-16T23:04:12.207Z,0.50
2023-05-16T23:07:01.668Z,0.30
2023-05-16T23:13:04.521Z,0.40
2023-05-16T23:15:56.263Z,0.40
2023-05-16T23:18:52.466Z,0.40
2023-05-16T23:22:04.841Z,0.20
2023-05-16T23:24:46.611Z,0.40
2023-05-16T23:27:29.203Z,0.30
2023-05-16T23:30:32.104Z,0.40
2023-05-16T23:33:37.995Z,0.40
2023-05-16T23:36:27.815Z,0.43
2023-05-16T23:39:20.834Z,0.30
2023-05-16T23:42:24.135Z,0.40
2023-05-16T23:45:29.777Z,0.40
2023-05-16T23:51:24.734Z,0.40
2023-05-16T23:54:25.472Z,0.30
